sensor_id;sensor_type;location;lat;lon;timestamp;temperature;humidity
45137;DHT22;30894;51.740;19.498;2023-09-19T04:05:23;16.20;93.50
45137;DHT22;30894;51.740;19.498;2023-09-19T04:58:26;16.90;92.90
45137;DHT22;30894;51.740;19.498;2023-09-19T05:06:13;16.90;92.90
45137;DHT22;30894;51.740;19.498;2023-09-19T05:10:17;17.00;93.00
45137;DHT22;30894;51.740;19.498;2023-09-19T05:13:15;17.10;93.10
45137;DHT22;30894;51.740;19.498;2023-09-19T05:19:12;17.20;92.90
45137;DHT22;30894;51.740;19.498;2023-09-19T05:22:34;17.30;92.80
45137;DHT22;30894;51.740;19.498;2023-09-19T05:26:00;17.40;92.70
45137;DHT22;30894;51.740;19.498;2023-09-19T05:37:43;17.60;92.60
45137;DHT22;30894;51.740;19.498;2023-09-19T05:53:09;17.50;93.80
45137;DHT22;30894;51.740;19.498;2023-09-19T05:56:59;17.30;94.40
45137;DHT22;30894;51.740;19.498;2023-09-19T06:19:58;16.70;96.30
45137;DHT22;30894;51.740;19.498;2023-09-19T06:23:00;16.80;96.50
45137;DHT22;30894;51.740;19.498;2023-09-19T06:26:26;16.80;96.50
45137;DHT22;30894;51.740;19.498;2023-09-19T06:29:44;16.50;96.50
45137;DHT22;30894;51.740;19.498;2023-09-19T06:33:08;16.60;96.60
45137;DHT22;30894;51.740;19.498;2023-09-19T06:36:47;17.00;96.60
45137;DHT22;30894;51.740;19.498;2023-09-19T06:40:23;17.00;96.70
45137;DHT22;30894;51.740;19.498;2023-09-19T06:47:51;16.50;96.60
45137;DHT22;30894;51.740;19.498;2023-09-19T06:51:32;16.80;96.50
45137;DHT22;30894;51.740;19.498;2023-09-19T06:58:03;17.00;96.20
45137;DHT22;30894;51.740;19.498;2023-09-19T07:04:44;17.30;95.90
45137;DHT22;30894;51.740;19.498;2023-09-19T07:07:24;17.30;95.80
45137;DHT22;30894;51.740;19.498;2023-09-19T07:12:30;17.30;96.10
45137;DHT22;30894;51.740;19.498;2023-09-19T07:41:44;17.50;97.20
45137;DHT22;30894;51.740;19.498;2023-09-19T07:45:04;17.60;97.10
45137;DHT22;30894;51.740;19.498;2023-09-19T07:48:27;17.60;97.30
45137;DHT22;30894;51.740;19.498;2023-09-19T07:57:10;17.70;98.00
45137;DHT22;30894;51.740;19.498;2023-09-19T08:44:31;19.00;99.60
45137;DHT22;30894;51.740;19.498;2023-09-19T08:47:56;19.20;99.80
45137;DHT22;30894;51.740;19.498;2023-09-19T08:51:30;19.30;99.20
45137;DHT22;30894;51.740;19.498;2023-09-19T08:55:18;19.60;99.10
45137;DHT22;30894;51.740;19.498;2023-09-19T08:58:57;19.60;99.00
45137;DHT22;30894;51.740;19.498;2023-09-19T09:05:47;19.50;99.50
45137;DHT22;30894;51.740;19.498;2023-09-19T09:12:00;19.60;99.70
45137;DHT22;30894;51.740;19.498;2023-09-19T09:24:53;19.50;99.90
45137;DHT22;30894;51.740;19.498;2023-09-19T09:45:41;20.00;99.90
45137;DHT22;30894;51.740;19.498;2023-09-19T10:03:19;20.10;99.90
45137;DHT22;30894;51.740;19.498;2023-09-19T10:13:39;19.90;99.90
45137;DHT22;30894;51.740;19.498;2023-09-19T10:17:10;19.90;99.90
45137;DHT22;30894;51.740;19.498;2023-09-19T10:20:32;19.80;99.90
45137;DHT22;30894;51.740;19.498;2023-09-19T10:51:27;19.70;99.90
45137;DHT22;30894;51.740;19.498;2023-09-19T10:54:38;19.50;99.90
45137;DHT22;30894;51.740;19.498;2023-09-19T10:58:24;19.30;99.90
45137;DHT22;30894;51.740;19.498;2023-09-19T11:09:51;18.80;99.90
45137;DHT22;30894;51.740;19.498;2023-09-19T11:15:02;18.60;99.90
45137;DHT22;30894;51.740;19.498;2023-09-19T11:34:08;18.40;99.90
45137;DHT22;30894;51.740;19.498;2023-09-19T11:41:47;18.50;99.90
45137;DHT22;30894;51.740;19.498;2023-09-19T11:46:53;18.70;99.90
45137;DHT22;30894;51.740;19.498;2023-09-19T11:49:31;18.80;99.90
45137;DHT22;30894;51.740;19.498;2023-09-19T11:52:05;18.80;99.90
45137;DHT22;30894;51.740;19.498;2023-09-19T11:54:32;18.90;99.90
45137;DHT22;30894;51.740;19.498;2023-09-19T11:56:59;18.80;99.90
45137;DHT22;30894;51.740;19.498;2023-09-19T11:59:32;18.90;99.90
45137;DHT22;30894;51.740;19.498;2023-09-19T12:02:06;18.90;99.90
45137;DHT22;30894;51.740;19.498;2023-09-19T12:04:35;18.90;99.90
45137;DHT22;30894;51.740;19.498;2023-09-19T12:07:14;18.90;99.90
45137;DHT22;30894;51.740;19.498;2023-09-19T12:09:42;19.00;99.90
45137;DHT22;30894;51.740;19.498;2023-09-19T12:12:13;19.00;99.90
45137;DHT22;30894;51.740;19.498;2023-09-19T12:14:51;18.90;99.90
45137;DHT22;30894;51.740;19.498;2023-09-19T12:17:18;18.80;99.90
45137;DHT22;30894;51.740;19.498;2023-09-19T12:19:55;18.90;99.90
45137;DHT22;30894;51.740;19.498;2023-09-19T12:22:22;18.80;99.90
45137;DHT22;30894;51.740;19.498;2023-09-19T12:24:49;18.80;99.90
45137;DHT22;30894;51.740;19.498;2023-09-19T12:27:16;18.80;99.90
45137;DHT22;30894;51.740;19.498;2023-09-19T12:29:47;18.90;99.90
45137;DHT22;30894;51.740;19.498;2023-09-19T12:32:36;18.90;99.90
45137;DHT22;30894;51.740;19.498;2023-09-19T12:35:07;19.20;99.90
45137;DHT22;30894;51.740;19.498;2023-09-19T12:37:45;19.30;99.90
45137;DHT22;30894;51.740;19.498;2023-09-19T12:40:14;19.40;99.90
45137;DHT22;30894;51.740;19.498;2023-09-19T12:42:44;19.60;99.90
45137;DHT22;30894;51.740;19.498;2023-09-19T12:45:11;19.70;99.90
45137;DHT22;30894;51.740;19.498;2023-09-19T12:51:12;20.30;99.90
45137;DHT22;30894;51.740;19.498;2023-09-19T12:53:44;20.70;99.90
45137;DHT22;30894;51.740;19.498;2023-09-19T12:56:18;21.10;99.90
45137;DHT22;30894;51.740;19.498;2023-09-19T12:58:58;21.50;99.00
45137;DHT22;30894;51.740;19.498;2023-09-19T13:01:27;21.90;97.90
45137;DHT22;30894;51.740;19.498;2023-09-19T13:06:39;22.70;95.80
45137;DHT22;30894;51.740;19.498;2023-09-19T13:09:13;22.80;95.10
45137;DHT22;30894;51.740;19.498;2023-09-19T13:11:41;22.70;94.90
45137;DHT22;30894;51.740;19.498;2023-09-19T13:14:26;22.60;94.80
45137;DHT22;30894;51.740;19.498;2023-09-19T13:17:05;22.60;95.00
45137;DHT22;30894;51.740;19.498;2023-09-19T13:19:49;22.50;95.10
45137;DHT22;30894;51.740;19.498;2023-09-19T13:22:40;22.80;94.60
45137;DHT22;30894;51.740;19.498;2023-09-19T13:25:16;23.10;93.80
45137;DHT22;30894;51.740;19.498;2023-09-19T13:27:46;23.50;93.00
45137;DHT22;30894;51.740;19.498;2023-09-19T13:30:22;23.60;92.30
45137;DHT22;30894;51.740;19.498;2023-09-19T13:32:52;23.80;91.80
45137;DHT22;30894;51.740;19.498;2023-09-19T13:35:29;24.10;91.10
45137;DHT22;30894;51.740;19.498;2023-09-19T13:37:55;24.50;90.50
45137;DHT22;30894;51.740;19.498;2023-09-19T13:40:24;24.30;90.00
45137;DHT22;30894;51.740;19.498;2023-09-19T13:42:59;24.20;90.00
45137;DHT22;30894;51.740;19.498;2023-09-19T13:45:25;24.00;90.00
45137;DHT22;30894;51.740;19.498;2023-09-19T13:47:53;24.00;90.10
45137;DHT22;30894;51.740;19.498;2023-09-19T13:50:19;24.10;89.90
45137;DHT22;30894;51.740;19.498;2023-09-19T13:52:53;24.20;89.30
45137;DHT22;30894;51.740;19.498;2023-09-19T13:55:22;24.20;88.90
45137;DHT22;30894;51.740;19.498;2023-09-19T13:57:53;24.20;88.10
45137;DHT22;30894;51.740;19.498;2023-09-19T14:00:22;24.60;87.10
45137;DHT22;30894;51.740;19.498;2023-09-19T14:02:49;24.80;86.10
45137;DHT22;30894;51.740;19.498;2023-09-19T14:05:16;25.40;84.90
45137;DHT22;30894;51.740;19.498;2023-09-19T14:07:48;25.70;83.40
45137;DHT22;30894;51.740;19.498;2023-09-19T14:10:14;25.70;82.00
45137;DHT22;30894;51.740;19.498;2023-09-19T14:12:47;25.60;80.90
45137;DHT22;30894;51.740;19.498;2023-09-19T14:15:21;25.90;79.50
45137;DHT22;30894;51.740;19.498;2023-09-19T14:17:58;26.00;78.20
45137;DHT22;30894;51.740;19.498;2023-09-19T14:20:27;25.70;77.60
45137;DHT22;30894;51.740;19.498;2023-09-19T14:22:57;25.50;78.00
45137;DHT22;30894;51.740;19.498;2023-09-19T14:25:24;25.10;78.40
45137;DHT22;30894;51.740;19.498;2023-09-19T14:27:51;25.00;78.70
45137;DHT22;30894;51.740;19.498;2023-09-19T14:30:18;24.70;78.50
45137;DHT22;30894;51.740;19.498;2023-09-19T14:32:45;24.80;78.70
45137;DHT22;30894;51.740;19.498;2023-09-19T14:35:11;24.60;79.00
45137;DHT22;30894;51.740;19.498;2023-09-19T14:37:39;24.50;78.70
45137;DHT22;30894;51.740;19.498;2023-09-19T14:40:07;24.40;79.00
45137;DHT22;30894;51.740;19.498;2023-09-19T14:42:39;24.20;79.10
45137;DHT22;30894;51.740;19.498;2023-09-19T14:45:06;23.80;79.10
45137;DHT22;30894;51.740;19.498;2023-09-19T14:47:33;24.00;79.50
45137;DHT22;30894;51.740;19.498;2023-09-19T14:50:02;23.90;79.80
45137;DHT22;30894;51.740;19.498;2023-09-19T14:52:47;23.80;79.80
45137;DHT22;30894;51.740;19.498;2023-09-19T14:55:16;24.10;79.60
45137;DHT22;30894;51.740;19.498;2023-09-19T14:57:49;23.50;79.70
45137;DHT22;30894;51.740;19.498;2023-09-19T15:00:17;23.50;79.60
45137;DHT22;30894;51.740;19.498;2023-09-19T15:02:57;23.20;79.50
45137;DHT22;30894;51.740;19.498;2023-09-19T15:05:23;23.50;79.80
45137;DHT22;30894;51.740;19.498;2023-09-19T15:07:50;23.00;79.50
45137;DHT22;30894;51.740;19.498;2023-09-19T15:10:17;23.10;79.50
45137;DHT22;30894;51.740;19.498;2023-09-19T15:13:17;23.00;79.20
45137;DHT22;30894;51.740;19.498;2023-09-19T15:15:44;23.10;79.10
45137;DHT22;30894;51.740;19.498;2023-09-19T15:18:15;23.10;78.50
45137;DHT22;30894;51.740;19.498;2023-09-19T15:20:47;23.00;78.60
45137;DHT22;30894;51.740;19.498;2023-09-19T15:23:14;22.90;78.20
45137;DHT22;30894;51.740;19.498;2023-09-19T15:25:48;23.30;78.40
45137;DHT22;30894;51.740;19.498;2023-09-19T15:28:15;22.80;78.20
45137;DHT22;30894;51.740;19.498;2023-09-19T15:31:02;22.70;78.30
45137;DHT22;30894;51.740;19.498;2023-09-19T15:33:39;22.90;78.50
45137;DHT22;30894;51.740;19.498;2023-09-19T15:36:18;22.50;79.20
45137;DHT22;30894;51.740;19.498;2023-09-19T15:39:04;22.40;78.80
45137;DHT22;30894;51.740;19.498;2023-09-19T15:41:33;22.20;79.00
45137;DHT22;30894;51.740;19.498;2023-09-19T15:44:02;22.00;79.50
45137;DHT22;30894;51.740;19.498;2023-09-19T15:46:30;22.50;80.30
45137;DHT22;30894;51.740;19.498;2023-09-19T15:48:57;21.60;80.30
45137;DHT22;30894;51.740;19.498;2023-09-19T15:51:24;21.20;80.70
45137;DHT22;30894;51.740;19.498;2023-09-19T15:53:52;21.70;81.80
45137;DHT22;30894;51.740;19.498;2023-09-19T15:56:20;21.00;82.10
45137;DHT22;30894;51.740;19.498;2023-09-19T15:58:55;20.80;82.70
45137;DHT22;30894;51.740;19.498;2023-09-19T16:01:22;20.50;83.30
45137;DHT22;30894;51.740;19.498;2023-09-19T16:03:53;20.30;84.00
45137;DHT22;30894;51.740;19.498;2023-09-19T16:06:26;20.00;84.70
45137;DHT22;30894;51.740;19.498;2023-09-19T16:08:55;19.80;85.60
45137;DHT22;30894;51.740;19.498;2023-09-19T16:11:26;19.70;86.50
45137;DHT22;30894;51.740;19.498;2023-09-19T16:13:53;19.40;87.30
45137;DHT22;30894;51.740;19.498;2023-09-19T16:16:21;19.20;88.10
45137;DHT22;30894;51.740;19.498;2023-09-19T16:18:54;19.00;88.90
45137;DHT22;30894;51.740;19.498;2023-09-19T16:21:26;18.80;89.70
45137;DHT22;30894;51.740;19.498;2023-09-19T16:23:56;18.60;90.30
45137;DHT22;30894;51.740;19.498;2023-09-19T16:26:24;18.30;90.70
45137;DHT22;30894;51.740;19.498;2023-09-19T16:28:53;18.10;91.00
45137;DHT22;30894;51.740;19.498;2023-09-19T16:31:21;18.00;91.40
45137;DHT22;30894;51.740;19.498;2023-09-19T16:33:48;17.90;91.70
45137;DHT22;30894;51.740;19.498;2023-09-19T16:36:16;17.60;91.90
45137;DHT22;30894;51.740;19.498;2023-09-19T16:38:46;17.50;92.30
45137;DHT22;30894;51.740;19.498;2023-09-19T16:41:17;17.30;92.70
45137;DHT22;30894;51.740;19.498;2023-09-19T16:43:48;17.00;93.10
45137;DHT22;30894;51.740;19.498;2023-09-19T16:46:15;16.80;93.50
45137;DHT22;30894;51.740;19.498;2023-09-19T16:48:43;16.60;93.90
45137;DHT22;30894;51.740;19.498;2023-09-19T16:51:17;16.70;94.40
45137;DHT22;30894;51.740;19.498;2023-09-19T16:53:44;16.00;94.40
45137;DHT22;30894;51.740;19.498;2023-09-19T16:56:18;16.60;94.80
45137;DHT22;30894;51.740;19.498;2023-09-19T16:58:47;16.30;94.90
45137;DHT22;30894;51.740;19.498;2023-09-19T17:01:16;16.20;95.00
45137;DHT22;30894;51.740;19.498;2023-09-19T17:03:48;16.10;95.30
45137;DHT22;30894;51.740;19.498;2023-09-19T17:06:18;15.90;95.50
45137;DHT22;30894;51.740;19.498;2023-09-19T17:11:31;15.60;96.10
45137;DHT22;30894;51.740;19.498;2023-09-19T17:16:42;15.40;96.60
45137;DHT22;30894;51.740;19.498;2023-09-19T17:19:46;15.40;96.80
45137;DHT22;30894;51.740;19.498;2023-09-19T17:34:14;14.80;97.70
45137;DHT22;30894;51.740;19.498;2023-09-19T17:37:51;14.50;98.30
45137;DHT22;30894;51.740;19.498;2023-09-19T17:45:11;13.90;99.50
45137;DHT22;30894;51.740;19.498;2023-09-19T17:51:56;13.60;99.90
45137;DHT22;30894;51.740;19.498;2023-09-19T17:58:08;13.40;99.90
45137;DHT22;30894;51.740;19.498;2023-09-19T18:01:31;13.30;99.90
45137;DHT22;30894;51.740;19.498;2023-09-19T18:11:26;12.80;99.90
45137;DHT22;30894;51.740;19.498;2023-09-19T18:15:29;12.60;99.90
45137;DHT22;30894;51.740;19.498;2023-09-19T18:37:19;12.00;99.90
45137;DHT22;30894;51.740;19.498;2023-09-19T18:40:49;12.30;99.90
45137;DHT22;30894;51.740;19.498;2023-09-19T18:44:28;11.80;99.90
45137;DHT22;30894;51.740;19.498;2023-09-19T18:51:40;11.70;99.90
45137;DHT22;30894;51.740;19.498;2023-09-19T18:58:12;11.50;99.90
45137;DHT22;30894;51.740;19.498;2023-09-19T19:05:09;11.30;99.90
45137;DHT22;30894;51.740;19.498;2023-09-19T19:11:22;11.10;99.90
45137;DHT22;30894;51.740;19.498;2023-09-19T19:21:39;10.80;99.90
45137;DHT22;30894;51.740;19.498;2023-09-19T19:33:54;10.60;99.90
45137;DHT22;30894;51.740;19.498;2023-09-19T19:37:53;10.60;99.90
45137;DHT22;30894;51.740;19.498;2023-09-19T19:41:37;10.60;99.90
45137;DHT22;30894;51.740;19.498;2023-09-19T19:47:36;10.60;99.90
45137;DHT22;30894;51.740;19.498;2023-09-19T19:51:03;10.50;99.90
45137;DHT22;30894;51.740;19.498;2023-09-19T19:57:03;10.40;99.90
45137;DHT22;30894;51.740;19.498;2023-09-19T20:00:06;10.40;99.90
45137;DHT22;30894;51.740;19.498;2023-09-19T20:03:32;10.50;99.90
45137;DHT22;30894;51.740;19.498;2023-09-19T20:07:04;10.70;99.90
45137;DHT22;30894;51.740;19.498;2023-09-19T20:10:19;10.60;99.90
45137;DHT22;30894;51.740;19.498;2023-09-19T20:13:53;10.50;99.90
45137;DHT22;30894;51.740;19.498;2023-09-19T20:17:05;10.50;99.90
45137;DHT22;30894;51.740;19.498;2023-09-19T20:21:03;10.50;99.90
45137;DHT22;30894;51.740;19.498;2023-09-19T20:27:51;10.80;99.90
45137;DHT22;30894;51.740;19.498;2023-09-19T20:38:59;11.30;99.90
45137;DHT22;30894;51.740;19.498;2023-09-19T20:48:24;11.40;99.90
45137;DHT22;30894;51.740;19.498;2023-09-19T20:51:50;11.60;99.90
45137;DHT22;30894;51.740;19.498;2023-09-19T20:55:03;11.30;99.90
45137;DHT22;30894;51.740;19.498;2023-09-19T21:03:48;11.10;99.90
45137;DHT22;30894;51.740;19.498;2023-09-19T21:07:01;12.00;99.90
45137;DHT22;30894;51.740;19.498;2023-09-19T21:10:24;11.20;99.90
45137;DHT22;30894;51.740;19.498;2023-09-19T21:29:16;11.10;99.90
45137;DHT22;30894;51.740;19.498;2023-09-19T21:33:02;11.00;99.90
45137;DHT22;30894;51.740;19.498;2023-09-19T21:39:13;11.10;99.90
45137;DHT22;30894;51.740;19.498;2023-09-19T21:42:39;11.10;99.90
45137;DHT22;30894;51.740;19.498;2023-09-19T21:45:54;12.10;99.90
45137;DHT22;30894;51.740;19.498;2023-09-19T21:51:49;11.10;99.90
45137;DHT22;30894;51.740;19.498;2023-09-19T21:55:11;11.20;99.90
45137;DHT22;30894;51.740;19.498;2023-09-19T23:40:53;9.80;99.90
45137;DHT22;30894;51.740;19.498;2023-09-19T23:46:19;9.80;99.90
